Solway, Minnesota
Current Conditions -  °F | °C
As of 12:13 AM on Sunday 26 Oct 2014 (Local Time) from KBJI Reporting Station
Clear Clear  
Wind Chill: 35°   Ceiling: Unl
Heat Index: 35°   Visibility: 10mi
Dew Point: 24°   Wind: 3mph
Humidity: 65%   Direction: 230°SW
Pressure: 30"   Gusts: NA
Location:  47.52°N, 95.13°W
Report Text: KBJI 260513Z AUTO 23003KT 10SM CLR 02/M04 A3000 RMK AO2 T00161043
Loading
Personal Weather Stations






























Interactive Weather Map
Tropical Storm Tracking
New forecast layout! Learn more

10-Day Weather Forecast

Advertisements
Track Severe Weather on mobile